createdAt,value
2022-10-11T00:00:18.219Z,8.60
2022-10-11T00:02:45.479Z,8.60
2022-10-11T00:05:12.431Z,8.60
2022-10-11T00:07:39.610Z,8.60
2022-10-11T00:10:07.678Z,8.50
2022-10-11T00:12:36.208Z,8.50
2022-10-11T00:15:04.907Z,8.50
2022-10-11T00:17:32.379Z,8.50
2022-10-11T00:19:59.430Z,8.50
2022-10-11T00:22:26.435Z,8.50
2022-10-11T00:24:53.408Z,8.40
2022-10-11T00:27:20.369Z,8.40
2022-10-11T00:29:47.325Z,8.40
2022-10-11T00:32:14.283Z,8.40
2022-10-11T00:34:41.194Z,8.40
2022-10-11T00:37:08.139Z,8.40
2022-10-11T00:39:35.314Z,8.30
2022-10-11T00:42:02.350Z,8.40
2022-10-11T00:44:32.279Z,8.40
2022-10-11T00:47:06.332Z,8.40
2022-10-11T00:49:42.030Z,8.40
2022-10-11T00:52:17.290Z,8.40
2022-10-11T00:54:46.878Z,8.30
2022-10-11T00:57:18.993Z,8.30
2022-10-11T00:59:51.328Z,8.20
2022-10-11T01:02:19.376Z,8.20
2022-10-11T01:04:46.375Z,8.10
2022-10-11T01:07:13.826Z,8.10
2022-10-11T01:09:40.660Z,8.00
2022-10-11T01:12:18.432Z,8.00
2022-10-11T01:14:58.281Z,8.00
2022-10-11T01:17:25.432Z,7.90
2022-10-11T01:20:28.436Z,7.80
2022-10-11T01:23:13.319Z,7.80
2022-10-11T01:26:04.601Z,7.80
2022-10-11T01:29:04.032Z,7.80
2022-10-11T01:31:53.951Z,7.80
2022-10-11T01:34:25.359Z,7.70
2022-10-11T01:37:05.232Z,7.70
2022-10-11T01:39:48.467Z,7.70
2022-10-11T01:42:18.689Z,7.70
2022-10-11T01:44:49.275Z,7.80
2022-10-11T01:47:20.560Z,7.80
2022-10-11T01:49:54.582Z,7.80
2022-10-11T01:52:21.843Z,7.80
2022-10-11T01:55:09.643Z,7.80
2022-10-11T01:57:58.407Z,7.80
2022-10-11T02:00:32.285Z,8.00
2022-10-11T02:02:59.362Z,8.00
2022-10-11T02:05:41.552Z,8.00
2022-10-11T02:08:14.114Z,7.90
2022-10-11T02:10:59.101Z,7.90
2022-10-11T02:13:34.491Z,7.90
2022-10-11T02:16:04.746Z,7.80
2022-10-11T02:18:39.341Z,7.70
2022-10-11T02:21:09.920Z,7.60
2022-10-11T02:23:41.935Z,7.60
2022-10-11T02:26:11.389Z,7.50
2022-10-11T02:28:40.618Z,7.40
2022-10-11T02:31:10.327Z,7.40
2022-10-11T02:33:55.637Z,7.40
2022-10-11T02:36:50.909Z,7.40
2022-10-11T02:39:25.082Z,7.30
2022-10-11T02:41:56.443Z,7.30
2022-10-11T02:44:34.094Z,7.30
2022-10-11T02:47:01.938Z,7.30
2022-10-11T02:49:30.915Z,7.20
2022-10-11T02:51:59.222Z,7.20
2022-10-11T02:54:27.122Z,7.10
2022-10-11T02:56:54.127Z,7.00
2022-10-11T02:59:21.285Z,6.90
2022-10-11T03:01:48.461Z,6.90
2022-10-11T03:04:15.561Z,6.70
2022-10-11T03:06:42.688Z,6.70
2022-10-11T03:09:09.776Z,6.70
2022-10-11T03:11:36.718Z,6.70
2022-10-11T03:14:03.703Z,6.60
2022-10-11T03:16:30.625Z,6.60
2022-10-11T03:18:57.581Z,6.60
2022-10-11T03:21:25.313Z,6.50
2022-10-11T03:23:52.406Z,6.50
2022-10-11T03:26:19.477Z,6.50
2022-10-11T03:28:46.531Z,6.40
2022-10-11T03:31:13.723Z,6.40
2022-10-11T03:33:40.853Z,6.40
2022-10-11T03:36:09.082Z,6.40
2022-10-11T03:38:36.150Z,6.40
2022-10-11T03:41:03.461Z,6.40
2022-10-11T03:43:30.548Z,6.40
2022-10-11T03:45:57.457Z,6.30
2022-10-11T03:48:24.379Z,6.40
2022-10-11T03:50:51.712Z,6.30
2022-10-11T03:53:18.881Z,6.30
2022-10-11T03:55:46.059Z,6.30
2022-10-11T03:58:13.297Z,6.30
2022-10-11T04:00:40.311Z,6.20
2022-10-11T04:03:07.380Z,6.20
2022-10-11T04:05:34.705Z,6.20
2022-10-11T04:08:01.737Z,6.20
2022-10-11T04:10:29.227Z,6.20
2022-10-11T04:12:56.174Z,6.10
2022-10-11T04:15:23.331Z,6.20
2022-10-11T04:17:50.580Z,6.20
2022-10-11T04:20:17.652Z,6.10
2022-10-11T04:22:44.795Z,6.10
2022-10-11T04:25:15.098Z,6.10
2022-10-11T04:27:42.286Z,6.10
2022-10-11T04:30:10.048Z,6.00
2022-10-11T04:32:37.071Z,6.00
2022-10-11T04:35:04.926Z,5.90
2022-10-11T04:37:31.891Z,5.90
2022-10-11T04:39:59.257Z,5.90
2022-10-11T04:42:26.197Z,5.90
2022-10-11T04:44:53.252Z,5.90
2022-10-11T04:47:20.307Z,5.90
2022-10-11T04:49:47.287Z,5.90
2022-10-11T04:52:14.202Z,5.90
2022-10-11T04:54:41.215Z,5.80
2022-10-11T04:57:08.140Z,5.80
2022-10-11T04:59:35.701Z,5.80
2022-10-11T05:02:02.619Z,5.80
2022-10-11T05:04:29.614Z,5.80
2022-10-11T05:06:56.531Z,5.80
2022-10-11T05:09:23.604Z,5.70
2022-10-11T05:11:50.516Z,5.80
2022-10-11T05:14:17.410Z,5.80
2022-10-11T05:16:44.320Z,5.70
2022-10-11T05:19:11.417Z,5.60
2022-10-11T05:21:38.505Z,5.60
2022-10-11T05:24:06.071Z,5.50
2022-10-11T05:26:33.149Z,5.50
2022-10-11T05:29:00.318Z,5.50
2022-10-11T05:31:27.445Z,5.50
2022-10-11T05:33:54.316Z,5.40
2022-10-11T05:36:21.460Z,5.30
2022-10-11T05:38:48.378Z,5.40
2022-10-11T05:41:20.972Z,5.40
2022-10-11T05:43:47.922Z,5.40
2022-10-11T05:46:15.207Z,5.30
2022-10-11T05:48:42.418Z,5.30
2022-10-11T05:51:11.289Z,5.30
2022-10-11T05:53:39.059Z,5.30
2022-10-11T05:56:16.794Z,5.30
2022-10-11T05:58:43.619Z,5.30
2022-10-11T06:01:17.821Z,5.20
2022-10-11T06:03:44.845Z,5.30
2022-10-11T06:06:11.977Z,5.40
2022-10-11T06:08:39.009Z,5.60
2022-10-11T06:11:21.602Z,5.70
2022-10-11T06:13:49.058Z,6.00
2022-10-11T06:16:16.529Z,6.30
2022-10-11T06:18:43.771Z,6.70
2022-10-11T06:21:10.775Z,7.10
2022-10-11T06:23:37.752Z,7.80
2022-10-11T06:26:09.356Z,8.60
2022-10-11T06:28:37.503Z,9.10
2022-10-11T06:31:06.314Z,10.10
2022-10-11T06:33:33.837Z,10.70
2022-10-11T06:36:04.307Z,11.20
2022-10-11T06:38:34.616Z,12.10
2022-10-11T06:41:19.719Z,13.00
2022-10-11T06:43:49.471Z,13.20
2022-10-11T06:46:20.497Z,13.30
2022-10-11T06:48:50.789Z,12.80
2022-10-11T06:51:24.540Z,12.00
2022-10-11T06:53:55.583Z,11.20
2022-10-11T06:56:23.050Z,10.80
2022-10-11T06:58:51.826Z,10.60
2022-10-11T07:01:25.987Z,10.60
2022-10-11T07:03:55.427Z,10.80
2022-10-11T07:06:25.563Z,10.70
2022-10-11T07:08:53.827Z,10.80
2022-10-11T07:11:27.931Z,10.80
2022-10-11T07:13:58.102Z,10.90
2022-10-11T07:16:26.329Z,10.10
2022-10-11T07:19:06.832Z,9.90
2022-10-11T07:21:35.595Z,10.30
2022-10-11T07:24:03.683Z,10.60
2022-10-11T07:26:37.446Z,10.90
2022-10-11T07:29:09.532Z,10.90
2022-10-11T07:31:38.201Z,11.20
2022-10-11T07:34:05.422Z,11.60
2022-10-11T07:36:32.461Z,11.80
2022-10-11T07:38:59.376Z,11.90
2022-10-11T07:41:26.555Z,12.00
2022-10-11T07:43:54.879Z,11.90
2022-10-11T07:46:22.160Z,11.80
2022-10-11T07:48:50.326Z,11.90
2022-10-11T07:51:20.474Z,12.00
2022-10-11T07:53:49.985Z,12.00
2022-10-11T07:56:20.641Z,12.00
2022-10-11T07:58:52.370Z,12.00
2022-10-11T08:01:20.717Z,12.30
2022-10-11T08:03:48.538Z,12.40
2022-10-11T08:06:18.374Z,12.20
2022-10-11T08:08:45.468Z,12.30
2022-10-11T08:11:21.334Z,12.50
2022-10-11T08:13:48.829Z,12.70
2022-10-11T08:16:16.487Z,12.80
2022-10-11T08:18:43.593Z,12.90
2022-10-11T08:21:12.430Z,13.10
2022-10-11T08:23:40.002Z,13.20
2022-10-11T08:26:07.792Z,13.30
2022-10-11T08:28:35.297Z,13.40
2022-10-11T08:31:03.007Z,13.60
2022-10-11T08:33:31.177Z,13.80
2022-10-11T08:35:58.458Z,13.80
2022-10-11T08:38:25.851Z,13.30
2022-10-11T08:40:57.877Z,13.40
2022-10-11T08:43:50.579Z,13.70
2022-10-11T08:46:23.673Z,14.40
2022-10-11T08:48:55.126Z,19.90
2022-10-11T08:51:32.220Z,24.60
2022-10-11T08:54:14.566Z,28.20
2022-10-11T08:56:43.311Z,30.00
2022-10-11T08:59:13.439Z,30.80
2022-10-11T09:02:03.451Z,30.50
2022-10-11T09:04:32.286Z,27.80
2022-10-11T09:07:24.329Z,28.50
2022-10-11T09:10:00.347Z,30.10
2022-10-11T09:12:49.343Z,26.40
2022-10-11T09:15:19.021Z,29.40
2022-10-11T09:17:52.806Z,31.30
2022-10-11T09:20:22.754Z,30.10
2022-10-11T09:23:08.422Z,31.90
2022-10-11T09:25:51.908Z,33.50
2022-10-11T09:28:22.138Z,34.90
2022-10-11T09:30:51.332Z,33.20
2022-10-11T09:33:34.141Z,31.50
2022-10-11T09:36:02.871Z,32.60
2022-10-11T09:38:40.536Z,33.10
2022-10-11T09:41:23.456Z,33.40
2022-10-11T09:43:51.822Z,33.60
2022-10-11T09:46:24.718Z,35.10
2022-10-11T09:48:52.344Z,35.10
2022-10-11T09:51:23.595Z,34.50
2022-10-11T09:53:58.494Z,35.50
2022-10-11T09:56:28.348Z,34.60
2022-10-11T09:59:26.888Z,35.20
2022-10-11T10:02:27.338Z,33.70
2022-10-11T10:04:55.490Z,32.80
2022-10-11T10:07:22.535Z,33.00
2022-10-11T10:09:50.208Z,32.60
2022-10-11T10:12:23.909Z,29.70
2022-10-11T10:15:17.637Z,28.10
2022-10-11T10:17:52.388Z,27.70
2022-10-11T10:20:31.744Z,28.40
2022-10-11T10:23:10.927Z,26.70
2022-10-11T10:25:43.252Z,28.20
2022-10-11T10:28:25.750Z,29.10
2022-10-11T10:30:59.375Z,29.10
2022-10-11T10:33:32.832Z,27.40
2022-10-11T10:36:15.209Z,26.60
2022-10-11T10:38:58.562Z,28.30
2022-10-11T10:41:26.235Z,29.30
2022-10-11T10:43:59.672Z,29.00
2022-10-11T10:46:51.610Z,30.30
2022-10-11T10:50:00.357Z,31.60
2022-10-11T10:52:53.654Z,32.00
2022-10-11T10:55:32.971Z,31.90
2022-10-11T10:58:06.029Z,32.30
2022-10-11T11:00:52.773Z,31.70
2022-10-11T11:03:47.927Z,30.20
2022-10-11T11:06:36.579Z,29.10
2022-10-11T11:09:22.115Z,28.80
2022-10-11T11:11:49.121Z,29.10
2022-10-11T11:14:40.231Z,29.70
2022-10-11T11:17:37.204Z,29.20
2022-10-11T11:20:33.675Z,29.50
2022-10-11T11:23:27.188Z,29.70
2022-10-11T11:26:15.235Z,27.70
2022-10-11T11:29:00.759Z,27.60
2022-10-11T11:31:57.749Z,28.90
2022-10-11T11:34:43.620Z,29.80
2022-10-11T11:37:41.758Z,29.00
2022-10-11T11:40:23.553Z,27.10
2022-10-11T11:42:53.724Z,26.10
2022-10-11T11:45:26.135Z,24.80
2022-10-11T11:48:08.582Z,23.90
2022-10-11T11:50:40.218Z,24.10
2022-10-11T11:53:18.339Z,25.20
2022-10-11T11:55:56.728Z,25.10
2022-10-11T11:59:05.099Z,24.90
2022-10-11T12:01:46.969Z,23.50
2022-10-11T12:04:29.463Z,24.00
2022-10-11T12:07:21.376Z,23.60
2022-10-11T12:09:52.441Z,23.60
2022-10-11T12:12:36.231Z,24.40
2022-10-11T12:15:27.011Z,24.40
2022-10-11T12:17:57.451Z,25.20
2022-10-11T12:20:32.291Z,25.60
2022-10-11T12:23:05.309Z,26.10
2022-10-11T12:25:36.619Z,26.00
2022-10-11T12:28:42.456Z,25.80
2022-10-11T12:31:20.408Z,26.20
2022-10-11T12:33:47.278Z,24.60
2022-10-11T12:36:34.490Z,24.40
2022-10-11T12:39:19.922Z,23.90
2022-10-11T12:41:49.929Z,21.70
2022-10-11T12:44:22.279Z,20.90
2022-10-11T12:46:54.679Z,20.20
2022-10-11T12:49:21.494Z,19.40
2022-10-11T12:52:18.961Z,19.30
2022-10-11T12:54:58.488Z,19.20
2022-10-11T12:58:06.105Z,19.40
2022-10-11T13:00:51.679Z,19.10
2022-10-11T13:03:42.338Z,18.80
2022-10-11T13:06:15.386Z,18.70
2022-10-11T13:08:47.408Z,18.60
2022-10-11T13:11:20.656Z,17.90
2022-10-11T13:13:56.764Z,17.70
2022-10-11T13:16:27.617Z,18.20
2022-10-11T13:18:59.928Z,18.10
2022-10-11T13:21:36.562Z,17.70
2022-10-11T13:24:18.510Z,17.40
2022-10-11T13:26:48.042Z,16.60
2022-10-11T13:29:27.661Z,16.90
2022-10-11T13:31:54.774Z,17.00
2022-10-11T13:34:23.588Z,17.20
2022-10-11T13:36:56.844Z,16.70
2022-10-11T13:39:31.300Z,16.90
2022-10-11T13:41:59.687Z,16.90
2022-10-11T13:44:27.082Z,17.10
2022-10-11T13:46:54.129Z,17.50
2022-10-11T13:49:26.140Z,17.40
2022-10-11T13:52:02.073Z,16.60
2022-10-11T13:55:06.021Z,16.80
2022-10-11T13:57:48.327Z,17.10
2022-10-11T14:00:15.211Z,17.40
2022-10-11T14:02:49.285Z,17.30
2022-10-11T14:05:28.866Z,17.30
2022-10-11T14:07:58.642Z,17.30
2022-10-11T14:10:26.054Z,17.20
2022-10-11T14:13:09.210Z,17.00
2022-10-11T14:15:38.086Z,17.00
2022-10-11T14:18:33.609Z,16.80
2022-10-11T14:21:18.931Z,16.50
2022-10-11T14:23:46.896Z,16.50
2022-10-11T14:26:18.754Z,16.70
2022-10-11T14:28:48.974Z,16.40
2022-10-11T14:31:15.929Z,16.60
2022-10-11T14:33:45.214Z,16.70
2022-10-11T14:36:12.146Z,16.60
2022-10-11T14:38:39.107Z,16.30
2022-10-11T14:41:06.453Z,16.30
2022-10-11T14:43:33.497Z,16.30
2022-10-11T14:46:00.370Z,16.10
2022-10-11T14:48:43.423Z,16.00
2022-10-11T14:51:15.892Z,16.10
2022-10-11T14:53:46.274Z,16.40
2022-10-11T14:56:17.802Z,16.40
2022-10-11T14:58:48.267Z,16.40
2022-10-11T15:01:17.299Z,16.40
2022-10-11T15:03:44.609Z,16.40
2022-10-11T15:06:33.329Z,16.40
2022-10-11T15:09:00.377Z,16.50
2022-10-11T15:11:27.302Z,16.60
2022-10-11T15:13:54.187Z,16.70
2022-10-11T15:16:22.026Z,16.30
2022-10-11T15:18:52.001Z,16.40
2022-10-11T15:21:21.003Z,16.40
2022-10-11T15:23:49.144Z,16.30
2022-10-11T15:26:22.236Z,16.30
2022-10-11T15:28:53.343Z,16.30
2022-10-11T15:31:20.724Z,16.20
2022-10-11T15:33:47.750Z,16.30
2022-10-11T15:36:17.821Z,16.20
2022-10-11T15:38:45.710Z,16.10
2022-10-11T15:41:15.661Z,15.90
2022-10-11T15:43:44.112Z,15.80
2022-10-11T15:46:19.652Z,15.60
2022-10-11T15:48:47.214Z,15.50
2022-10-11T15:51:15.535Z,15.10
2022-10-11T15:53:42.529Z,15.00
2022-10-11T15:56:15.277Z,14.90
2022-10-11T15:58:43.208Z,14.90
2022-10-11T16:01:18.614Z,14.70
2022-10-11T16:03:47.881Z,14.70
2022-10-11T16:06:15.207Z,14.60
2022-10-11T16:08:42.418Z,14.50
2022-10-11T16:11:10.706Z,14.40
2022-10-11T16:13:37.966Z,14.40
2022-10-11T16:16:08.147Z,14.30
2022-10-11T16:18:45.275Z,14.20
2022-10-11T16:21:15.548Z,14.10
2022-10-11T16:23:43.027Z,14.00
2022-10-11T16:26:13.649Z,13.90
2022-10-11T16:28:41.962Z,13.90
2022-10-11T16:31:18.106Z,13.80
2022-10-11T16:33:46.149Z,13.60
2022-10-11T16:36:32.220Z,13.60
2022-10-11T16:39:00.699Z,13.50
2022-10-11T16:41:27.867Z,13.40
2022-10-11T16:43:55.855Z,13.30
2022-10-11T16:46:23.218Z,13.20
2022-10-11T16:48:50.162Z,13.20
2022-10-11T16:51:17.049Z,13.10
2022-10-11T16:53:43.918Z,12.90
2022-10-11T16:56:12.069Z,12.80
2022-10-11T16:58:39.101Z,12.70
2022-10-11T17:01:11.205Z,12.60
2022-10-11T17:03:39.077Z,12.50
2022-10-11T17:06:07.536Z,12.40
2022-10-11T17:08:36.129Z,12.30
2022-10-11T17:11:04.109Z,12.20
2022-10-11T17:13:31.191Z,12.10
2022-10-11T17:15:58.636Z,12.00
2022-10-11T17:18:25.950Z,11.90
2022-10-11T17:21:04.832Z,11.90
2022-10-11T17:23:33.119Z,11.80
2022-10-11T17:26:10.075Z,11.70
2022-10-11T17:28:38.973Z,11.70
2022-10-11T17:31:07.655Z,11.60
2022-10-11T17:33:37.858Z,11.50
2022-10-11T17:36:21.690Z,11.50
2022-10-11T17:38:49.583Z,11.40
2022-10-11T17:41:17.301Z,11.30
2022-10-11T17:43:44.680Z,11.20
2022-10-11T17:46:14.412Z,11.20
2022-10-11T17:48:42.053Z,11.20
2022-10-11T17:51:11.696Z,11.10
2022-10-11T17:53:38.955Z,11.00
2022-10-11T17:56:12.508Z,10.90
2022-10-11T17:58:40.160Z,10.90
2022-10-11T18:01:12.153Z,10.90
2022-10-11T18:03:39.628Z,10.80
2022-10-11T18:06:08.601Z,10.80
2022-10-11T18:08:40.130Z,10.80
2022-10-11T18:11:12.939Z,10.70
2022-10-11T18:13:43.245Z,10.60
2022-10-11T18:16:11.086Z,11.60
2022-10-11T18:18:38.566Z,10.50
2022-10-11T18:21:05.739Z,10.50
2022-10-11T18:23:32.834Z,10.40
2022-10-11T18:25:59.876Z,10.30
2022-10-11T18:28:26.985Z,10.30
2022-10-11T18:30:55.517Z,10.30
2022-10-11T18:33:22.514Z,10.20
2022-10-11T18:35:49.434Z,10.20
2022-10-11T18:38:16.405Z,10.10
2022-10-11T18:40:47.058Z,10.00
2022-10-11T18:43:14.636Z,10.00
2022-10-11T18:45:43.013Z,10.00
2022-10-11T18:48:09.956Z,9.90
2022-10-11T18:50:37.169Z,9.80
2022-10-11T18:55:31.983Z,9.70
2022-10-11T18:57:59.233Z,9.60
2022-10-11T19:00:41.880Z,9.50
2022-10-11T19:03:08.906Z,9.50
2022-10-11T19:05:39.078Z,9.50
2022-10-11T19:08:06.234Z,9.40
2022-10-11T19:10:34.319Z,9.40
2022-10-11T19:13:01.407Z,9.30
2022-10-11T19:15:29.022Z,9.10
2022-10-11T19:17:56.003Z,8.70
2022-10-11T19:20:22.991Z,8.80
2022-10-11T19:22:49.982Z,8.80
2022-10-11T19:25:17.087Z,8.80
2022-10-11T19:27:44.000Z,8.80
2022-10-11T19:30:11.309Z,8.80
2022-10-11T19:32:38.309Z,8.80
2022-10-11T19:35:05.898Z,8.70
2022-10-11T19:37:33.357Z,8.60
2022-10-11T19:40:00.643Z,8.50
2022-10-11T19:42:27.665Z,8.40
2022-10-11T19:44:54.680Z,8.40
2022-10-11T19:47:21.742Z,8.40
2022-10-11T19:49:48.780Z,8.30
2022-10-11T19:52:16.028Z,8.40
2022-10-11T19:54:43.131Z,8.40
2022-10-11T19:57:10.172Z,8.40
2022-10-11T19:59:37.200Z,8.40
2022-10-11T20:02:04.316Z,8.40
2022-10-11T20:04:51.504Z,8.40
2022-10-11T20:07:18.179Z,8.40
2022-10-11T20:09:45.058Z,8.30
2022-10-11T20:12:12.103Z,8.20
2022-10-11T20:14:39.077Z,8.20
2022-10-11T20:17:06.159Z,8.20
2022-10-11T20:19:33.163Z,8.10
2022-10-11T20:22:01.052Z,8.10
2022-10-11T20:24:32.663Z,8.10
2022-10-11T20:27:02.575Z,8.00
2022-10-11T20:29:29.637Z,7.90
2022-10-11T20:31:58.990Z,7.90
2022-10-11T20:34:27.676Z,7.90
2022-10-11T20:36:54.671Z,7.90
2022-10-11T20:39:21.890Z,7.80
2022-10-11T20:41:49.068Z,7.80
2022-10-11T20:44:16.301Z,7.70
2022-10-11T20:46:43.345Z,7.60
2022-10-11T20:49:12.155Z,7.60
2022-10-11T20:51:41.729Z,7.60
2022-10-11T20:54:09.161Z,7.60
2022-10-11T20:56:37.584Z,7.60
2022-10-11T20:59:06.669Z,7.50
2022-10-11T21:01:37.066Z,7.50
2022-10-11T21:04:05.665Z,7.50
2022-10-11T21:06:33.640Z,7.50
2022-10-11T21:09:01.058Z,7.50
2022-10-11T21:11:29.821Z,7.50
2022-10-11T21:13:59.152Z,7.50
2022-10-11T21:16:27.035Z,7.40
2022-10-11T21:18:55.653Z,7.30
2022-10-11T21:21:26.274Z,7.30
2022-10-11T21:24:01.830Z,7.30
2022-10-11T21:26:29.947Z,7.20
2022-10-11T21:28:59.285Z,7.20
2022-10-11T21:31:29.756Z,7.10
2022-10-11T21:34:01.141Z,7.00
2022-10-11T21:36:28.348Z,7.00
2022-10-11T21:38:56.232Z,7.00
2022-10-11T21:41:30.079Z,6.90
2022-10-11T21:43:58.653Z,6.90
2022-10-11T21:49:20.531Z,6.80
2022-10-11T21:51:47.428Z,6.80
2022-10-11T21:54:14.624Z,6.80
2022-10-11T21:56:41.709Z,6.70
2022-10-11T21:59:12.017Z,6.60
2022-10-11T22:01:40.632Z,6.50
2022-10-11T22:04:07.746Z,6.40
2022-10-11T22:06:35.329Z,6.40
2022-10-11T22:09:03.721Z,6.40
2022-10-11T22:11:31.328Z,6.30
2022-10-11T22:13:58.710Z,6.30
2022-10-11T22:16:25.600Z,6.30
2022-10-11T22:18:53.850Z,6.30
2022-10-11T22:21:23.196Z,6.20
2022-10-11T22:23:52.495Z,6.20
2022-10-11T22:26:22.844Z,6.20
2022-10-11T22:28:50.159Z,6.20
2022-10-11T22:31:19.336Z,6.20
2022-10-11T22:33:46.699Z,6.20
2022-10-11T22:36:14.192Z,6.20
2022-10-11T22:38:42.632Z,6.20
2022-10-11T22:41:10.226Z,6.20
2022-10-11T22:43:37.318Z,6.20
2022-10-11T22:46:05.283Z,6.10
2022-10-11T22:48:32.210Z,6.10
2022-10-11T22:50:59.399Z,6.00
2022-10-11T22:53:26.247Z,6.00
2022-10-11T22:55:53.285Z,5.90
2022-10-11T22:58:20.407Z,5.90
2022-10-11T23:00:47.389Z,5.90
2022-10-11T23:03:18.327Z,5.80
2022-10-11T23:05:54.758Z,5.80
2022-10-11T23:08:21.993Z,5.80
2022-10-11T23:10:49.100Z,5.70
2022-10-11T23:13:16.087Z,5.70
2022-10-11T23:15:43.190Z,5.70
2022-10-11T23:18:10.285Z,5.70
2022-10-11T23:20:39.484Z,5.70
2022-10-11T23:23:07.322Z,5.60
2022-10-11T23:25:34.208Z,5.60
2022-10-11T23:28:02.008Z,5.50
2022-10-11T23:30:29.803Z,5.60
2022-10-11T23:32:57.049Z,5.50
2022-10-11T23:35:24.230Z,5.50
2022-10-11T23:37:53.343Z,5.50
2022-10-11T23:40:20.402Z,5.40
2022-10-11T23:42:47.314Z,5.40
2022-10-11T23:45:14.313Z,5.30
2022-10-11T23:47:41.327Z,5.30
2022-10-11T23:50:08.944Z,5.30
2022-10-11T23:52:36.120Z,5.30
2022-10-11T23:55:03.207Z,5.30
2022-10-11T23:57:30.094Z,5.30
2022-10-11T23:59:57.009Z,5.30
